Skip Navigation LinksHome page > Weather > Current weather Skip Navigation Links

Current Weather

Sarh, Chad

For information only: do not use for flight planning or navigation.
Latest weather
Observation time Monday, May 22, 2017 4:00 PM WAT
Local time Monday, May 22, 2017 4:40 PM WAT
Flight conditions Visual Meteorological Conditions
Winds
Wind direction East (100°)
Wind speed 16 mph
Visibility 6.2 mi.
Sky condition
Ceiling 4,000 ft. broken clouds
Cloud layer few clouds 3,000 ft.
Cloud layer broken clouds 4,000 ft.
Cloud layer few clouds with cumulonimbus 5,000 ft.
Temperature 91°F
Dewpoint 72°F
Altimeter 29.83 in.Hg
Derived measurements
Relative humidity 53%
Heat index 99°F
Density altitude 2879 ft.
METAR FTTA 221500Z 10014KT 9999 FEW030 BKN040 FEW050CB 33/22 Q1010

Settings

Location code

InnerDrive.Weather 4.0.6144.1 Release CLR 4.0.30319.36366
Copyright ©2015 Inner Drive Technology. All rights reserved. Portions Copyright ©1986-2015 David Braverman.

Find weather

Site navigation


Skip Navigation Links

Place info

Page info

PayPal - The safer, easier way to pay online!

Return home.

Copyright ©2017 Inner Drive Technology. Purveyors of fine, hand-crafted computer software. Page printed 2017-05-22T15:40:58 UTC.